sensor_id;sensor_type;location;lat;lon;timestamp;pressure;altitude;pressure_sealevel;temperature;humidity
43436;BME280;36399;51.444;-2.018;2023-03-18T00:00:19;99621.13;;;9.01;100.00
43436;BME280;36399;51.444;-2.018;2023-03-18T00:02:46;99619.31;;;8.89;100.00
43436;BME280;36399;51.444;-2.018;2023-03-18T00:05:13;99623.66;;;8.87;100.00
43436;BME280;36399;51.444;-2.018;2023-03-18T00:07:40;99622.84;;;8.96;100.00
43436;BME280;36399;51.444;-2.018;2023-03-18T00:10:07;99618.50;;;8.96;100.00
43436;BME280;36399;51.444;-2.018;2023-03-18T00:12:35;99617.63;;;8.97;100.00
43436;BME280;36399;51.444;-2.018;2023-03-18T00:15:05;99623.72;;;8.95;100.00
43436;BME280;36399;51.444;-2.018;2023-03-18T00:17:35;99620.22;;;8.94;100.00
43436;BME280;36399;51.444;-2.018;2023-03-18T00:20:07;99622.88;;;8.99;100.00
43436;BME280;36399;51.444;-2.018;2023-03-18T00:22:37;99619.38;;;8.97;100.00
43436;BME280;36399;51.444;-2.018;2023-03-18T00:25:06;99617.63;;;8.99;100.00
43436;BME280;36399;51.444;-2.018;2023-03-18T00:27:37;99617.63;;;8.99;100.00
43436;BME280;36399;51.444;-2.018;2023-03-18T00:30:05;99615.84;;;8.92;100.00
43436;BME280;36399;51.444;-2.018;2023-03-18T00:32:31;99613.22;;;8.93;100.00
43436;BME280;36399;51.444;-2.018;2023-03-18T00:34:57;99615.88;;;8.95;100.00
43436;BME280;36399;51.444;-2.018;2023-03-18T00:37:24;99618.53;;;9.04;100.00
43436;BME280;36399;51.444;-2.018;2023-03-18T00:40:00;99614.16;;;9.00;100.00
43436;BME280;36399;51.444;-2.018;2023-03-18T00:42:36;99618.53;;;9.05;100.00
43436;BME280;36399;51.444;-2.018;2023-03-18T00:45:06;99619.38;;;9.00;100.00
43436;BME280;36399;51.444;-2.018;2023-03-18T00:47:33;99618.56;;;9.14;100.00
43436;BME280;36399;51.444;-2.018;2023-03-18T00:50:00;99618.50;;;9.01;100.00
43436;BME280;36399;51.444;-2.018;2023-03-18T00:52:29;99626.41;;;9.10;100.00
43436;BME280;36399;51.444;-2.018;2023-03-18T00:54:59;99626.38;;;9.04;100.00
43436;BME280;36399;51.444;-2.018;2023-03-18T00:57:26;99625.50;;;9.02;100.00
43436;BME280;36399;51.444;-2.018;2023-03-18T00:59:52;99616.75;;;8.97;100.00
43436;BME280;36399;51.444;-2.018;2023-03-18T01:02:18;99613.22;;;8.92;100.00
43436;BME280;36399;51.444;-2.018;2023-03-18T01:04:45;99622.78;;;8.87;100.00
43436;BME280;36399;51.444;-2.018;2023-03-18T01:07:11;99621.00;;;8.82;100.00
43436;BME280;36399;51.444;-2.018;2023-03-18T01:09:39;99612.22;;;8.73;100.00
43436;BME280;36399;51.444;-2.018;2023-03-18T01:12:09;99623.53;;;8.72;100.00
43436;BME280;36399;51.444;-2.018;2023-03-18T01:14:38;99617.47;;;8.74;100.00
43436;BME280;36399;51.444;-2.018;2023-03-18T01:17:06;99618.31;;;8.70;100.00
43436;BME280;36399;51.444;-2.018;2023-03-18T01:19:32;99613.94;;;8.69;100.00
43436;BME280;36399;51.444;-2.018;2023-03-18T01:21:59;99610.41;;;8.64;100.00
43436;BME280;36399;51.444;-2.018;2023-03-18T01:24:25;99608.69;;;8.69;100.00
43436;BME280;36399;51.444;-2.018;2023-03-18T01:26:52;99606.09;;;8.71;100.00
43436;BME280;36399;51.444;-2.018;2023-03-18T01:29:18;99612.16;;;8.62;100.00
43436;BME280;36399;51.444;-2.018;2023-03-18T01:31:45;99600.78;;;8.60;100.00
43436;BME280;36399;51.444;-2.018;2023-03-18T01:34:11;99597.22;;;8.49;100.00
43436;BME280;36399;51.444;-2.018;2023-03-18T01:36:39;99598.06;;;8.45;100.00
43436;BME280;36399;51.444;-2.018;2023-03-18T01:39:06;99594.63;;;8.52;100.00
43436;BME280;36399;51.444;-2.018;2023-03-18T01:41:32;99599.88;;;8.52;100.00
43436;BME280;36399;51.444;-2.018;2023-03-18T01:43:58;99599.84;;;8.50;100.00
43436;BME280;36399;51.444;-2.018;2023-03-18T01:46:36;99597.28;;;8.55;100.00
43436;BME280;36399;51.444;-2.018;2023-03-18T01:49:34;99594.66;;;8.55;100.00
43436;BME280;36399;51.444;-2.018;2023-03-18T01:52:30;99592.03;;;8.55;100.00
43436;BME280;36399;51.444;-2.018;2023-03-18T01:55:05;99588.59;;;8.61;100.00
43436;BME280;36399;51.444;-2.018;2023-03-18T01:57:32;99585.13;;;8.63;100.00
43436;BME280;36399;51.444;-2.018;2023-03-18T02:00:00;99589.53;;;8.70;100.00
43436;BME280;36399;51.444;-2.018;2023-03-18T02:02:26;99599.97;;;8.67;100.00
43436;BME280;36399;51.444;-2.018;2023-03-18T02:04:55;99597.34;;;8.64;100.00
43436;BME280;36399;51.444;-2.018;2023-03-18T02:07:25;99594.72;;;8.64;100.00
43436;BME280;36399;51.444;-2.018;2023-03-18T02:09:54;99591.22;;;8.62;100.00
43436;BME280;36399;51.444;-2.018;2023-03-18T02:12:27;99596.44;;;8.62;100.00
43436;BME280;36399;51.444;-2.018;2023-03-18T02:14:54;99595.59;;;8.63;100.00
43436;BME280;36399;51.444;-2.018;2023-03-18T02:17:24;99592.13;;;8.69;100.00
43436;BME280;36399;51.444;-2.018;2023-03-18T02:22:38;99605.22;;;8.70;100.00
43436;BME280;36399;51.444;-2.018;2023-03-18T02:25:10;99596.63;;;8.87;100.00
43436;BME280;36399;51.444;-2.018;2023-03-18T02:27:41;99598.28;;;8.75;100.00
43436;BME280;36399;51.444;-2.018;2023-03-18T02:30:22;99600.91;;;8.78;100.00
43436;BME280;36399;51.444;-2.018;2023-03-18T02:32:51;99593.91;;;8.74;100.00
43436;BME280;36399;51.444;-2.018;2023-03-18T02:35:17;99588.78;;;8.88;100.00
43436;BME280;36399;51.444;-2.018;2023-03-18T02:37:43;99586.97;;;8.84;100.00
43436;BME280;36399;51.444;-2.018;2023-03-18T02:42:48;99591.41;;;8.90;100.00
43436;BME280;36399;51.444;-2.018;2023-03-18T02:45:34;99592.22;;;8.84;100.00
43436;BME280;36399;51.444;-2.018;2023-03-18T02:48:05;99594.91;;;8.90;100.00
43436;BME280;36399;51.444;-2.018;2023-03-18T02:50:32;99586.97;;;8.84;100.00
43436;BME280;36399;51.444;-2.018;2023-03-18T02:53:01;99594.88;;;8.85;100.00
43436;BME280;36399;51.444;-2.018;2023-03-18T02:55:28;99584.41;;;8.89;100.00
43436;BME280;36399;51.444;-2.018;2023-03-18T02:57:54;99591.34;;;8.83;100.00
43436;BME280;36399;51.444;-2.018;2023-03-18T03:00:21;99588.78;;;8.90;100.00
43436;BME280;36399;51.444;-2.018;2023-03-18T03:02:46;99584.44;;;8.95;100.00
43436;BME280;36399;51.444;-2.018;2023-03-18T03:05:12;99582.69;;;8.89;100.00
43436;BME280;36399;51.444;-2.018;2023-03-18T03:07:38;99592.28;;;8.89;100.00
43436;BME280;36399;51.444;-2.018;2023-03-18T03:10:06;99587.88;;;8.84;100.00
43436;BME280;36399;51.444;-2.018;2023-03-18T03:12:32;99593.16;;;8.91;100.00
43436;BME280;36399;51.444;-2.018;2023-03-18T03:14:59;99590.56;;;8.97;100.00
43436;BME280;36399;51.444;-2.018;2023-03-18T03:17:25;99595.81;;;9.01;100.00
43436;BME280;36399;51.444;-2.018;2023-03-18T03:19:51;99594.06;;;8.97;100.00
43436;BME280;36399;51.444;-2.018;2023-03-18T03:22:17;99600.13;;;8.92;100.00
43436;BME280;36399;51.444;-2.018;2023-03-18T03:24:44;99594.91;;;8.92;100.00
43436;BME280;36399;51.444;-2.018;2023-03-18T03:27:10;99595.75;;;8.89;100.00
43436;BME280;36399;51.444;-2.018;2023-03-18T03:29:37;99597.50;;;8.87;100.00
43436;BME280;36399;51.444;-2.018;2023-03-18T03:32:03;99596.63;;;8.87;100.00
43436;BME280;36399;51.444;-2.018;2023-03-18T03:34:29;99604.47;;;8.88;100.00
43436;BME280;36399;51.444;-2.018;2023-03-18T03:36:55;99600.06;;;8.82;100.00
43436;BME280;36399;51.444;-2.018;2023-03-18T03:39:21;99599.25;;;8.90;100.00
43436;BME280;36399;51.444;-2.018;2023-03-18T03:41:48;99602.72;;;8.87;100.00
43436;BME280;36399;51.444;-2.018;2023-03-18T03:44:14;99600.09;;;8.85;100.00
43436;BME280;36399;51.444;-2.018;2023-03-18T03:46:40;99604.53;;;8.96;100.00
43436;BME280;36399;51.444;-2.018;2023-03-18T03:49:06;99605.41;;;8.98;100.00
43436;BME280;36399;51.444;-2.018;2023-03-18T03:51:32;99609.75;;;8.93;100.00
43436;BME280;36399;51.444;-2.018;2023-03-18T03:53:57;99605.41;;;8.99;100.00
43436;BME280;36399;51.444;-2.018;2023-03-18T03:56:23;99614.16;;;9.00;100.00
43436;BME280;36399;51.444;-2.018;2023-03-18T03:58:49;99615.88;;;8.99;100.00
43436;BME280;36399;51.444;-2.018;2023-03-18T04:01:16;99614.16;;;9.01;100.00
43436;BME280;36399;51.444;-2.018;2023-03-18T04:03:42;99616.75;;;9.00;100.00
43436;BME280;36399;51.444;-2.018;2023-03-18T04:06:08;99614.16;;;9.01;100.00
43436;BME280;36399;51.444;-2.018;2023-03-18T04:08:34;99626.41;;;9.07;100.00
43436;BME280;36399;51.444;-2.018;2023-03-18T04:10:59;99615.88;;;8.98;100.00
43436;BME280;36399;51.444;-2.018;2023-03-18T04:13:25;99627.19;;;8.92;100.00
43436;BME280;36399;51.444;-2.018;2023-03-18T04:15:51;99630.69;;;8.96;100.00
43436;BME280;36399;51.444;-2.018;2023-03-18T04:18:17;99627.19;;;8.94;100.00
43436;BME280;36399;51.444;-2.018;2023-03-18T04:20:43;99621.09;;;8.95;100.00
43436;BME280;36399;51.444;-2.018;2023-03-18T04:23:09;99628.06;;;8.93;100.00
43436;BME280;36399;51.444;-2.018;2023-03-18T04:25:35;99621.09;;;8.95;100.00
43436;BME280;36399;51.444;-2.018;2023-03-18T04:28:01;99627.19;;;8.92;100.00
43436;BME280;36399;51.444;-2.018;2023-03-18T04:30:27;99622.81;;;8.91;100.00
43436;BME280;36399;51.444;-2.018;2023-03-18T04:32:53;99624.63;;;9.00;100.00
43436;BME280;36399;51.444;-2.018;2023-03-18T04:35:19;99630.69;;;8.91;100.00
43436;BME280;36399;51.444;-2.018;2023-03-18T04:37:45;99623.72;;;8.95;100.00
43436;BME280;36399;51.444;-2.018;2023-03-18T04:40:11;99622.81;;;8.91;100.00
43436;BME280;36399;51.444;-2.018;2023-03-18T04:42:38;99631.56;;;8.95;100.00
43436;BME280;36399;51.444;-2.018;2023-03-18T04:45:05;99621.97;;;8.94;100.00
43436;BME280;36399;51.444;-2.018;2023-03-18T04:47:32;99627.19;;;8.92;100.00
43436;BME280;36399;51.444;-2.018;2023-03-18T04:49:59;99613.22;;;8.90;100.00
43436;BME280;36399;51.444;-2.018;2023-03-18T04:52:25;99624.53;;;8.86;100.00
43436;BME280;36399;51.444;-2.018;2023-03-18T04:54:51;99615.75;;;8.82;100.00
43436;BME280;36399;51.444;-2.018;2023-03-18T04:57:17;99621.00;;;8.84;100.00
43436;BME280;36399;51.444;-2.018;2023-03-18T04:59:44;99621.78;;;8.71;100.00
43436;BME280;36399;51.444;-2.018;2023-03-18T05:02:10;99613.03;;;8.64;100.00
43436;BME280;36399;51.444;-2.018;2023-03-18T05:04:37;99613.03;;;8.63;100.00
43436;BME280;36399;51.444;-2.018;2023-03-18T05:07:03;99611.22;;;8.54;100.00
43436;BME280;36399;51.444;-2.018;2023-03-18T05:09:29;99616.47;;;8.56;100.00
43436;BME280;36399;51.444;-2.018;2023-03-18T05:11:56;99611.16;;;8.46;100.00
43436;BME280;36399;51.444;-2.018;2023-03-18T05:14:22;99614.66;;;8.45;100.00
43436;BME280;36399;51.444;-2.018;2023-03-18T05:16:48;99611.09;;;8.36;100.00
43436;BME280;36399;51.444;-2.018;2023-03-18T05:19:14;99617.22;;;8.38;100.00
43436;BME280;36399;51.444;-2.018;2023-03-18T05:21:41;99613.72;;;8.37;100.00
43436;BME280;36399;51.444;-2.018;2023-03-18T05:24:07;99618.97;;;8.39;100.00
43436;BME280;36399;51.444;-2.018;2023-03-18T05:26:34;99624.22;;;8.42;100.00
43436;BME280;36399;51.444;-2.018;2023-03-18T05:29:00;99621.59;;;8.42;100.00
43436;BME280;36399;51.444;-2.018;2023-03-18T05:31:26;99622.50;;;8.47;100.00
43436;BME280;36399;51.444;-2.018;2023-03-18T05:33:52;99620.81;;;8.52;100.00
43436;BME280;36399;51.444;-2.018;2023-03-18T05:36:18;99622.59;;;8.59;100.00
43436;BME280;36399;51.444;-2.018;2023-03-18T05:38:47;99629.59;;;8.63;100.00
43436;BME280;36399;51.444;-2.018;2023-03-18T05:41:13;99639.16;;;8.58;100.00
43436;BME280;36399;51.444;-2.018;2023-03-18T05:43:39;99639.22;;;8.67;100.00
43436;BME280;36399;51.444;-2.018;2023-03-18T05:46:05;99641.75;;;8.57;100.00
43436;BME280;36399;51.444;-2.018;2023-03-18T05:48:31;99642.75;;;8.74;100.00
43436;BME280;36399;51.444;-2.018;2023-03-18T05:50:57;99640.97;;;8.67;100.00
43436;BME280;36399;51.444;-2.018;2023-03-18T05:53:24;99647.09;;;8.72;100.00
43436;BME280;36399;51.444;-2.018;2023-03-18T05:55:50;99645.38;;;8.74;100.00
43436;BME280;36399;51.444;-2.018;2023-03-18T05:58:16;99636.63;;;8.73;100.00
43436;BME280;36399;51.444;-2.018;2023-03-18T06:00:42;99641.78;;;8.61;100.00
43436;BME280;36399;51.444;-2.018;2023-03-18T06:03:08;99647.03;;;8.61;100.00
43436;BME280;36399;51.444;-2.018;2023-03-18T06:05:34;99649.59;;;8.53;100.00
43436;BME280;36399;51.444;-2.018;2023-03-18T06:08:00;99649.66;;;8.63;100.00
43436;BME280;36399;51.444;-2.018;2023-03-18T06:10:26;99650.47;;;8.54;100.00
43436;BME280;36399;51.444;-2.018;2023-03-18T06:12:52;99646.97;;;8.52;100.00
43436;BME280;36399;51.444;-2.018;2023-03-18T06:15:20;99650.44;;;8.51;100.00
43436;BME280;36399;51.444;-2.018;2023-03-18T06:17:46;99646.94;;;8.49;100.00
43436;BME280;36399;51.444;-2.018;2023-03-18T06:20:13;99650.47;;;8.57;100.00
43436;BME280;36399;51.444;-2.018;2023-03-18T06:22:39;99655.75;;;8.60;100.00
43436;BME280;36399;51.444;-2.018;2023-03-18T06:25:05;99654.88;;;8.60;100.00
43436;BME280;36399;51.444;-2.018;2023-03-18T06:27:33;99665.31;;;8.58;100.00
43436;BME280;36399;51.444;-2.018;2023-03-18T06:30:00;99664.47;;;8.62;100.00
43436;BME280;36399;51.444;-2.018;2023-03-18T06:32:29;99664.44;;;8.56;100.00
43436;BME280;36399;51.444;-2.018;2023-03-18T06:34:55;99675.75;;;8.55;100.00
43436;BME280;36399;51.444;-2.018;2023-03-18T06:37:21;99680.09;;;8.53;100.00
43436;BME280;36399;51.444;-2.018;2023-03-18T06:39:47;99666.97;;;8.45;100.00
43436;BME280;36399;51.444;-2.018;2023-03-18T06:42:14;99676.50;;;8.39;100.00
43436;BME280;36399;51.444;-2.018;2023-03-18T06:44:40;99665.84;;;8.23;100.00
43436;BME280;36399;51.444;-2.018;2023-03-18T06:47:07;99667.50;;;8.15;100.00
43436;BME280;36399;51.444;-2.018;2023-03-18T06:49:34;99662.19;;;8.06;100.00
43436;BME280;36399;51.444;-2.018;2023-03-18T06:52:01;99668.16;;;7.95;100.00
43436;BME280;36399;51.444;-2.018;2023-03-18T06:54:26;99669.88;;;7.93;100.00
43436;BME280;36399;51.444;-2.018;2023-03-18T06:56:53;99669.00;;;7.92;100.00
43436;BME280;36399;51.444;-2.018;2023-03-18T06:59:19;99671.66;;;7.95;100.00
43436;BME280;36399;51.444;-2.018;2023-03-18T07:01:48;99673.44;;;7.99;100.00
43436;BME280;36399;51.444;-2.018;2023-03-18T07:04:14;99670.91;;;8.08;100.00
43436;BME280;36399;51.444;-2.018;2023-03-18T07:06:40;99676.16;;;8.10;100.00
43436;BME280;36399;51.444;-2.018;2023-03-18T07:09:06;99678.00;;;8.18;100.00
43436;BME280;36399;51.444;-2.018;2023-03-18T07:11:32;99686.72;;;8.22;100.00
43436;BME280;36399;51.444;-2.018;2023-03-18T07:13:58;99690.28;;;8.30;100.00
43436;BME280;36399;51.444;-2.018;2023-03-18T07:16:24;99686.94;;;8.39;100.00
43436;BME280;36399;51.444;-2.018;2023-03-18T07:18:50;99693.06;;;8.41;100.00
43436;BME280;36399;51.444;-2.018;2023-03-18T07:21:16;99681.78;;;8.45;100.00
43436;BME280;36399;51.444;-2.018;2023-03-18T07:23:42;99691.41;;;8.49;100.00
43436;BME280;36399;51.444;-2.018;2023-03-18T07:26:09;99692.34;;;8.57;100.00
43436;BME280;36399;51.444;-2.018;2023-03-18T07:28:37;99692.41;;;8.66;100.00
43436;BME280;36399;51.444;-2.018;2023-03-18T07:31:03;99693.28;;;8.65;100.00
43436;BME280;36399;51.444;-2.018;2023-03-18T07:33:29;99695.06;;;8.72;100.00
43436;BME280;36399;51.444;-2.018;2023-03-18T07:35:58;99702.91;;;8.72;100.00
43436;BME280;36399;51.444;-2.018;2023-03-18T07:38:24;99686.31;;;8.67;100.00
43436;BME280;36399;51.444;-2.018;2023-03-18T07:40:50;99684.59;;;8.69;100.00
43436;BME280;36399;51.444;-2.018;2023-03-18T07:43:16;99687.94;;;8.51;100.00
43436;BME280;36399;51.444;-2.018;2023-03-18T07:45:42;99686.16;;;8.47;100.00
43436;BME280;36399;51.444;-2.018;2023-03-18T07:48:08;99689.47;;;8.33;100.00
43436;BME280;36399;51.444;-2.018;2023-03-18T07:50:34;99678.88;;;8.20;100.00
43436;BME280;36399;51.444;-2.018;2023-03-18T07:53:00;99678.88;;;8.19;100.00
43436;BME280;36399;51.444;-2.018;2023-03-18T07:55:27;99665.59;;;7.99;100.00
43436;BME280;36399;51.444;-2.018;2023-03-18T07:57:52;99680.31;;;7.91;100.00
43436;BME280;36399;51.444;-2.018;2023-03-18T08:00:19;99679.44;;;7.89;100.00
43436;BME280;36399;51.444;-2.018;2023-03-18T08:02:45;99689.09;;;7.98;100.00
43436;BME280;36399;51.444;-2.018;2023-03-18T08:05:11;99691.78;;;8.02;100.00
43436;BME280;36399;51.444;-2.018;2023-03-18T08:07:38;99699.69;;;8.11;100.00
43436;BME280;36399;51.444;-2.018;2023-03-18T08:10:07;99702.69;;;8.45;100.00
43436;BME280;36399;51.444;-2.018;2023-03-18T08:12:33;99702.81;;;8.57;100.00
43436;BME280;36399;51.444;-2.018;2023-03-18T08:14:59;99706.59;;;8.93;100.00
43436;BME280;36399;51.444;-2.018;2023-03-18T08:17:25;99711.16;;;9.23;100.00
43436;BME280;36399;51.444;-2.018;2023-03-18T08:19:51;99701.72;;;9.54;100.00
43436;BME280;36399;51.444;-2.018;2023-03-18T08:22:17;99699.31;;;10.04;100.00
43436;BME280;36399;51.444;-2.018;2023-03-18T08:24:43;99699.34;;;10.19;100.00
43436;BME280;36399;51.444;-2.018;2023-03-18T08:27:10;99701.19;;;10.60;100.00
43436;BME280;36399;51.444;-2.018;2023-03-18T08:29:36;99702.03;;;10.89;100.00
43436;BME280;36399;51.444;-2.018;2023-03-18T08:32:02;99694.16;;;11.18;100.00
43436;BME280;36399;51.444;-2.018;2023-03-18T08:34:28;99697.66;;;11.16;100.00
43436;BME280;36399;51.444;-2.018;2023-03-18T08:36:54;99699.41;;;11.11;100.00
43436;BME280;36399;51.444;-2.018;2023-03-18T08:39:20;99698.53;;;11.19;100.00
43436;BME280;36399;51.444;-2.018;2023-03-18T08:41:46;99697.69;;;11.06;100.00
43436;BME280;36399;51.444;-2.018;2023-03-18T08:44:13;99693.31;;;10.55;100.00
43436;BME280;36399;51.444;-2.018;2023-03-18T08:46:40;99681.94;;;10.50;100.00
43436;BME280;36399;51.444;-2.018;2023-03-18T08:49:06;99691.56;;;10.54;100.00
43436;BME280;36399;51.444;-2.018;2023-03-18T08:51:33;99688.06;;;10.64;100.00
43436;BME280;36399;51.444;-2.018;2023-03-18T08:53:59;99685.44;;;10.55;100.00
43436;BME280;36399;51.444;-2.018;2023-03-18T08:56:25;99685.41;;;10.37;100.00
43436;BME280;36399;51.444;-2.018;2023-03-18T08:58:52;99686.25;;;10.21;100.00
43436;BME280;36399;51.444;-2.018;2023-03-18T09:01:18;99688.03;;;10.40;100.00
43436;BME280;36399;51.444;-2.018;2023-03-18T09:03:49;99688.06;;;10.49;100.00
43436;BME280;36399;51.444;-2.018;2023-03-18T09:06:15;99683.69;;;10.54;100.00
43436;BME280;36399;51.444;-2.018;2023-03-18T09:08:41;99682.78;;;10.90;100.00
43436;BME280;36399;51.444;-2.018;2023-03-18T09:11:09;99672.28;;;11.02;100.00
43436;BME280;36399;51.444;-2.018;2023-03-18T09:13:36;99675.75;;;11.21;100.00
43436;BME280;36399;51.444;-2.018;2023-03-18T09:16:04;99676.66;;;11.16;100.00
43436;BME280;36399;51.444;-2.018;2023-03-18T09:18:30;99667.00;;;11.16;100.00
43436;BME280;36399;51.444;-2.018;2023-03-18T09:20:57;99663.56;;;10.70;100.00
43436;BME280;36399;51.444;-2.018;2023-03-18T09:23:23;99674.03;;;11.05;100.00
43436;BME280;36399;51.444;-2.018;2023-03-18T09:25:50;99672.28;;;11.07;100.00
43436;BME280;36399;51.444;-2.018;2023-03-18T09:28:16;99660.91;;;11.03;100.00
43436;BME280;36399;51.444;-2.018;2023-03-18T09:30:42;99661.81;;;10.95;100.00
43436;BME280;36399;51.444;-2.018;2023-03-18T09:33:09;99663.53;;;11.08;100.00
43436;BME280;36399;51.444;-2.018;2023-03-18T09:35:36;99657.38;;;11.14;100.00
43436;BME280;36399;51.444;-2.018;2023-03-18T09:38:03;99663.56;;;10.99;100.00
43436;BME280;36399;51.444;-2.018;2023-03-18T09:40:34;99670.53;;;11.04;100.00
43436;BME280;36399;51.444;-2.018;2023-03-18T09:43:15;99669.69;;;10.93;100.00
43436;BME280;36399;51.444;-2.018;2023-03-18T09:46:26;99670.53;;;10.92;100.00
43436;BME280;36399;51.444;-2.018;2023-03-18T09:49:14;99669.63;;;11.21;100.00
43436;BME280;36399;51.444;-2.018;2023-03-18T09:52:18;99668.59;;;11.69;100.00
43436;BME280;36399;51.444;-2.018;2023-03-18T09:54:54;99663.19;;;12.07;100.00
43436;BME280;36399;51.444;-2.018;2023-03-18T09:57:25;99668.47;;;12.03;100.00
43436;BME280;36399;51.444;-2.018;2023-03-18T10:05:17;99635.03;;;13.21;100.00
43436;BME280;36399;51.444;-2.018;2023-03-18T10:07:46;99635.78;;;14.01;100.00
43436;BME280;36399;51.444;-2.018;2023-03-18T10:10:36;99620.31;;;13.75;100.00
43436;BME280;36399;51.444;-2.018;2023-03-18T10:13:19;99618.56;;;13.74;100.00
43436;BME280;36399;51.444;-2.018;2023-03-18T10:15:56;99622.66;;;13.97;100.00
43436;BME280;36399;51.444;-2.018;2023-03-18T10:18:30;99617.59;;;14.40;100.00
43436;BME280;36399;51.444;-2.018;2023-03-18T10:21:20;99626.28;;;14.49;100.00
43436;BME280;36399;51.444;-2.018;2023-03-18T10:26:40;99623.19;;;14.77;100.00
43436;BME280;36399;51.444;-2.018;2023-03-18T10:39:54;99623.75;;;13.80;100.00
43436;BME280;36399;51.444;-2.018;2023-03-18T10:42:24;99618.66;;;13.68;100.00
43436;BME280;36399;51.444;-2.018;2023-03-18T10:44:52;99627.25;;;13.07;100.00
43436;BME280;36399;51.444;-2.018;2023-03-18T10:47:27;99636.28;;;12.82;100.00
43436;BME280;36399;51.444;-2.018;2023-03-18T10:52:55;99638.28;;;12.55;100.00
43436;BME280;36399;51.444;-2.018;2023-03-18T10:55:27;99640.06;;;12.50;100.00
43436;BME280;36399;51.444;-2.018;2023-03-18T10:57:53;99634.13;;;13.23;100.00
43436;BME280;36399;51.444;-2.018;2023-03-18T11:00:31;99646.31;;;13.34;100.00
43436;BME280;36399;51.444;-2.018;2023-03-18T11:02:58;99635.81;;;13.31;100.00
43436;BME280;36399;51.444;-2.018;2023-03-18T11:05:28;99636.72;;;13.28;100.00
43436;BME280;36399;51.444;-2.018;2023-03-18T11:07:56;99641.34;;;13.00;100.00
43436;BME280;36399;51.444;-2.018;2023-03-18T11:10:26;99646.78;;;12.85;100.00
43436;BME280;36399;51.444;-2.018;2023-03-18T11:12:56;99640.69;;;12.80;100.00
43436;BME280;36399;51.444;-2.018;2023-03-18T11:15:24;99641.91;;;12.39;100.00
43436;BME280;36399;51.444;-2.018;2023-03-18T11:17:51;99645.53;;;12.23;100.00
43436;BME280;36399;51.444;-2.018;2023-03-18T11:20:22;99655.25;;;12.13;100.00
43436;BME280;36399;51.444;-2.018;2023-03-18T11:22:51;99657.09;;;11.99;100.00
43436;BME280;36399;51.444;-2.018;2023-03-18T11:25:22;99663.25;;;11.90;100.00
43436;BME280;36399;51.444;-2.018;2023-03-18T11:27:56;99657.13;;;11.87;100.00
43436;BME280;36399;51.444;-2.018;2023-03-18T11:30:27;99662.44;;;11.81;100.00
43436;BME280;36399;51.444;-2.018;2023-03-18T11:33:03;99665.06;;;11.82;100.00
43436;BME280;36399;51.444;-2.018;2023-03-18T11:35:50;99663.25;;;11.90;100.00
43436;BME280;36399;51.444;-2.018;2023-03-18T11:41:05;99661.13;;;12.47;100.00
43436;BME280;36399;51.444;-2.018;2023-03-18T11:43:36;99659.91;;;12.89;100.00
43436;BME280;36399;51.444;-2.018;2023-03-18T11:46:07;99649.84;;;13.33;100.00
43436;BME280;36399;51.444;-2.018;2023-03-18T11:48:37;99635.53;;;13.55;100.00
43436;BME280;36399;51.444;-2.018;2023-03-18T11:54:08;99641.13;;;13.97;100.00
43436;BME280;36399;51.444;-2.018;2023-03-18T11:56:46;99640.28;;;13.93;100.00
43436;BME280;36399;51.444;-2.018;2023-03-18T12:07:48;99630.50;;;17.72;100.00
43436;BME280;36399;51.444;-2.018;2023-03-18T12:16:20;99644.31;;;18.95;100.00
43436;BME280;36399;51.444;-2.018;2023-03-18T12:24:32;99626.69;;;21.60;100.00
43436;BME280;36399;51.444;-2.018;2023-03-18T12:30:28;99641.75;;;18.65;100.00
43436;BME280;36399;51.444;-2.018;2023-03-18T12:41:27;99642.03;;;16.34;100.00
43436;BME280;36399;51.444;-2.018;2023-03-18T12:46:31;99645.94;;;18.72;100.00
43436;BME280;36399;51.444;-2.018;2023-03-18T12:51:49;99634.53;;;19.20;100.00
43436;BME280;36399;51.444;-2.018;2023-03-18T12:55:09;99634.75;;;19.64;100.00
43436;BME280;36399;51.444;-2.018;2023-03-18T12:57:49;99647.72;;;18.73;100.00
43436;BME280;36399;51.444;-2.018;2023-03-18T13:00:23;99643.94;;;17.64;100.00
43436;BME280;36399;51.444;-2.018;2023-03-18T13:05:59;99652.00;;;16.96;100.00
43436;BME280;36399;51.444;-2.018;2023-03-18T13:16:48;99663.88;;;14.67;100.00
43436;BME280;36399;51.444;-2.018;2023-03-18T13:19:15;99661.06;;;14.19;100.00
43436;BME280;36399;51.444;-2.018;2023-03-18T13:21:51;99661.59;;;13.79;100.00
43436;BME280;36399;51.444;-2.018;2023-03-18T13:41:00;99664.66;;;15.23;100.00
43436;BME280;36399;51.444;-2.018;2023-03-18T13:43:32;99676.63;;;14.93;100.00
43436;BME280;36399;51.444;-2.018;2023-03-18T13:45:59;99673.31;;;14.80;100.00
43436;BME280;36399;51.444;-2.018;2023-03-18T13:50:56;99688.50;;;14.07;100.00
43436;BME280;36399;51.444;-2.018;2023-03-18T13:53:29;99696.88;;;13.69;100.00
43436;BME280;36399;51.444;-2.018;2023-03-18T13:58:54;99715.28;;;12.83;100.00
43436;BME280;36399;51.444;-2.018;2023-03-18T14:13:55;99715.59;;;13.45;100.00
43436;BME280;36399;51.444;-2.018;2023-03-18T14:16:23;99705.78;;;13.62;100.00
43436;BME280;36399;51.444;-2.018;2023-03-18T14:18:59;99698.56;;;13.76;100.00
43436;BME280;36399;51.444;-2.018;2023-03-18T14:21:28;99700.59;;;13.50;100.00
43436;BME280;36399;51.444;-2.018;2023-03-18T14:29:26;99698.94;;;14.15;100.00
43436;BME280;36399;51.444;-2.018;2023-03-18T14:32:00;99683.00;;;15.30;100.00
43436;BME280;36399;51.444;-2.018;2023-03-18T14:34:31;99658.94;;;17.65;100.00
43436;BME280;36399;51.444;-2.018;2023-03-18T14:39:39;99665.41;;;18.17;100.00
43436;BME280;36399;51.444;-2.018;2023-03-18T14:45:16;99664.25;;;16.27;100.00
43436;BME280;36399;51.444;-2.018;2023-03-18T14:47:45;99673.19;;;15.37;100.00
43436;BME280;36399;51.444;-2.018;2023-03-18T14:50:16;99678.41;;;14.92;100.00
43436;BME280;36399;51.444;-2.018;2023-03-18T14:52:52;99683.72;;;14.32;100.00
43436;BME280;36399;51.444;-2.018;2023-03-18T14:55:24;99691.28;;;13.94;100.00
43436;BME280;36399;51.444;-2.018;2023-03-18T14:57:51;99697.78;;;14.34;100.00
43436;BME280;36399;51.444;-2.018;2023-03-18T15:00:20;99695.03;;;14.40;100.00